Bluarrow — CRXN — position and weather

sailwx.info

Track history (hours):
 
Tides and Currents Weather Stations Pressure Air Temp Water Temp Dewpoint Dewpoint Depression Visibility Wind Speed Wind Dir Waves Ship Positions

Bluarrow

Last reported at 2014-Sep-29 17:28 UTC. Time now 2014-Oct-01 00:11 UTC.
Position N 36°48' E 003°05'.

Length 126 m; draft 7.8 m.

Type: Cargo ship. MMSI: 255797000.

Date/timePositionNaut miles runAvg speedWind from/ knotsBaromVisibWave heightAir tempDewpointWater temp
2014-Sep-29 17:28N 36°48' E 003°05'0 0.0
2014-Sep-29 16:28N 36°48' E 003°05'  
2014-Sep-26 14:03N 35°55' W 005°16'2 4.8
2014-Sep-26 13:33N 35°54' W 005°19'0 0.1
2014-Sep-26 12:33N 35°54' W 005°18'0 0.0
2014-Sep-26 11:33N 35°54' W 005°18'0 0.0
2014-Sep-26 10:33N 35°54' W 005°18'0 0.0
2014-Sep-26 09:33N 35°54' W 005°18'0 0.0
2014-Sep-26 08:33N 35°54' W 005°18'0 0.0
2014-Sep-26 07:33N 35°54' W 005°18'1 1.1
2014-Sep-26 06:33N 35°55' W 005°19'4 4.1
2014-Sep-26 05:33N 35°57' W 005°23'15110.0
2014-Sep-25 14:24N 36°23' W 008°28'910.7
2014-Sep-25 13:33N 36°25' W 008°39'1110.7
2014-Sep-25 12:32N 36°28' W 008°52'60 8.3
2014-Sep-25 05:20N 37°21' W 009°28'810.0
2014-Sep-25 04:33N 37°28' W 009°24'1010.0
2014-Sep-25 03:33N 37°37' W 009°20'1010.3
2014-Sep-25 02:33N 37°47' W 009°16'1010.5
2014-Sep-25 01:33N 37°57' W 009°12'1110.8
2014-Sep-25 00:33N 38°07' W 009°08'1110.5
2014-Sep-24 23:33N 38°18' W 009°04'1010.1
2014-Sep-24 22:33N 38°27' W 008°59'4 3.5
2014-Sep-24 21:33N 38°30' W 008°56'0 0.0
2014-Sep-24 20:31N 38°30' W 008°56'0 0.0
2014-Sep-24 19:31N 38°30' W 008°56'0 0.0
2014-Sep-24 18:31N 38°30' W 008°56'0 0.0
2014-Sep-24 17:28N 38°30' W 008°56'0 0.0
2014-Sep-24 16:31N 38°30' W 008°56'0 0.0
2014-Sep-24 15:31N 38°30' W 008°56'0 0.0
2014-Sep-24 14:31N 38°30' W 008°56'0 0.0
2014-Sep-24 13:28N 38°30' W 008°56'0 0.0
2014-Sep-24 12:31N 38°30' W 008°56'0 0.0
2014-Sep-24 11:31N 38°30' W 008°56'0 0.0
2014-Sep-24 10:31N 38°30' W 008°56'0 0.0
2014-Sep-24 09:31N 38°30' W 008°56'0 0.0
2014-Sep-24 08:31N 38°30' W 008°56'0 0.0
2014-Sep-24 07:31N 38°30' W 008°56'0 0.0
2014-Sep-24 06:31N 38°30' W 008°56'0 0.0
2014-Sep-24 05:31N 38°30' W 008°56'0 0.0
2014-Sep-24 04:31N 38°30' W 008°56'0 0.0
2014-Sep-24 03:25N 38°30' W 008°56'0 0.0
2014-Sep-24 02:31N 38°30' W 008°56'0 0.0
2014-Sep-24 01:25N 38°30' W 008°56'0 0.0
2014-Sep-24 00:31N 38°30' W 008°56'0 0.0
2014-Sep-23 23:28N 38°30' W 008°56'0 0.0
2014-Sep-23 22:31N 38°30' W 008°56'0 0.0
2014-Sep-23 21:31N 38°30' W 008°56'0 0.0
2014-Sep-23 20:31N 38°30' W 008°56'0 0.0
2014-Sep-23 19:31N 38°30' W 008°56'0 0.0
2014-Sep-23 18:31N 38°30' W 008°56'0 0.0
2014-Sep-23 17:28N 38°30' W 008°56'0 0.0
2014-Sep-23 16:28N 38°30' W 008°56'0 0.0
2014-Sep-23 15:22N 38°30' W 008°56'0 0.0
2014-Sep-23 14:31N 38°30' W 008°56'0 0.0
2014-Sep-23 13:31N 38°30' W 008°56'0 0.0
2014-Sep-23 12:31N 38°30' W 008°56'0 0.0
2014-Sep-23 11:31N 38°30' W 008°56'0 0.0
2014-Sep-23 10:31N 38°30' W 008°56'0 0.0
2014-Sep-23 09:31N 38°30' W 008°56'0 0.0
2014-Sep-23 08:31N 38°30' W 008°56'0 0.0
2014-Sep-23 07:31N 38°30' W 008°56'0 0.0
2014-Sep-23 06:31N 38°30' W 008°56'0 0.0
2014-Sep-23 05:31N 38°30' W 008°56'0 0.0
2014-Sep-23 04:31N 38°30' W 008°56'0 0.0
2014-Sep-23 03:31N 38°30' W 008°56'0 0.0
2014-Sep-23 02:31N 38°30' W 008°56'0 0.0
2014-Sep-23 01:31N 38°30' W 008°56'0 0.0
2014-Sep-23 00:31N 38°30' W 008°56'0 0.0
2014-Sep-22 23:31N 38°30' W 008°56'0 0.0
2014-Sep-22 22:31N 38°30' W 008°56'0 0.0
2014-Sep-22 21:28N 38°30' W 008°56'0 0.0
2014-Sep-22 20:31N 38°30' W 008°56'0 0.0
2014-Sep-22 19:31N 38°30' W 008°56'0 0.0
2014-Sep-22 18:25N 38°30' W 008°56'0 0.0
2014-Sep-22 17:31N 38°30' W 008°56'0 0.0
2014-Sep-22 16:31N 38°30' W 008°56'0 0.0
2014-Sep-22 15:28N 38°30' W 008°56'0 0.0
2014-Sep-22 14:31N 38°30' W 008°56'0 0.2
2014-Sep-22 13:33N 38°30' W 008°56'6 5.9
2014-Sep-22 12:33N 38°25' W 009°01'1 0.6
2014-Sep-22 11:33N 38°25' W 009°01'0 0.5
2014-Sep-22 10:33N 38°24' W 009°01'5 4.6
2014-Sep-22 09:33N 38°19' W 009°01'1010.3
2014-Sep-22 08:33N 38°09' W 009°03'1010.5
2014-Sep-22 07:33N 37°59' W 009°06'1010.3
2014-Sep-22 06:33N 37°49' W 009°09'1010.1
2014-Sep-22 05:33N 37°39' W 009°12'1110.2
2014-Sep-22 04:27N 37°28' W 009°15'57 8.0
2014-Sep-21 21:20N 36°38' W 008°44'155 9.8
2014-Sep-21 05:33N 35°58' W 005°37'7 7.3
2014-Sep-21 04:33N 35°60' W 005°29'8 8.0
2014-Sep-21 03:33N 36°02' W 005°19'194 9.2
2014-Sep-20 06:29N 36°31' W 001°20'1010.4
2014-Sep-20 05:30N 36°32' W 001°08'910.1
2014-Sep-20 04:34N 36°34' W 000°56'3210.0
2014-Sep-20 01:20N 36°38' W 000°16'810.1
2014-Sep-20 00:32N 36°39' W 000°06'10 9.8
2014-Sep-19 23:33N 36°40' E 000°06'1010.0
2014-Sep-19 22:33N 36°42' E 000°18'10 9.9
2014-Sep-19 21:32N 36°43' E 000°30'1410.0
2014-Sep-19 20:07N 36°45' E 000°48'610.2
2014-Sep-19 19:33N 36°45' E 000°55'1010.3
2014-Sep-19 18:33N 36°46' E 001°08'1010.2
2014-Sep-19 17:31N 36°46' E 001°21'  
Track history (hours):
 
Tides and Currents Weather Stations Pressure Air Temp Water Temp Dewpoint Dewpoint Depression Visibility Wind Speed Wind Dir Waves Ship Positions

Bluarrow

Last reported at 2014-Sep-29 17:28 UTC. Time now 2014-Oct-01 00:11 UTC.
Position N 36°48' E 003°05'.

Length 126 m; draft 7.8 m.

Type: Cargo ship. MMSI: 255797000.

Date/timePositionNaut miles runAvg speedWind from/ knotsBaromVisibWave heightAir tempDewpointWater temp
2014-Sep-29 17:28N 36°48' E 003°05'0 0.0
2014-Sep-29 16:28N 36°48' E 003°05'  
2014-Sep-26 14:03N 35°55' W 005°16'2 4.8
2014-Sep-26 13:33N 35°54' W 005°19'0 0.1
2014-Sep-26 12:33N 35°54' W 005°18'0 0.0
2014-Sep-26 11:33N 35°54' W 005°18'0 0.0
2014-Sep-26 10:33N 35°54' W 005°18'0 0.0
2014-Sep-26 09:33N 35°54' W 005°18'0 0.0
2014-Sep-26 08:33N 35°54' W 005°18'0 0.0
2014-Sep-26 07:33N 35°54' W 005°18'1 1.1
2014-Sep-26 06:33N 35°55' W 005°19'4 4.1
2014-Sep-26 05:33N 35°57' W 005°23'15110.0
2014-Sep-25 14:24N 36°23' W 008°28'910.7
2014-Sep-25 13:33N 36°25' W 008°39'1110.7
2014-Sep-25 12:32N 36°28' W 008°52'60 8.3
2014-Sep-25 05:20N 37°21' W 009°28'810.0
2014-Sep-25 04:33N 37°28' W 009°24'1010.0
2014-Sep-25 03:33N 37°37' W 009°20'1010.3
2014-Sep-25 02:33N 37°47' W 009°16'1010.5
2014-Sep-25 01:33N 37°57' W 009°12'1110.8
2014-Sep-25 00:33N 38°07' W 009°08'1110.5
2014-Sep-24 23:33N 38°18' W 009°04'1010.1
2014-Sep-24 22:33N 38°27' W 008°59'4 3.5
2014-Sep-24 21:33N 38°30' W 008°56'0 0.0
2014-Sep-24 20:31N 38°30' W 008°56'0 0.0
2014-Sep-24 19:31N 38°30' W 008°56'0 0.0
2014-Sep-24 18:31N 38°30' W 008°56'0 0.0
2014-Sep-24 17:28N 38°30' W 008°56'0 0.0
2014-Sep-24 16:31N 38°30' W 008°56'0 0.0
2014-Sep-24 15:31N 38°30' W 008°56'0 0.0
2014-Sep-24 14:31N 38°30' W 008°56'0 0.0
2014-Sep-24 13:28N 38°30' W 008°56'0 0.0
2014-Sep-24 12:31N 38°30' W 008°56'0 0.0
2014-Sep-24 11:31N 38°30' W 008°56'0 0.0
2014-Sep-24 10:31N 38°30' W 008°56'0 0.0
2014-Sep-24 09:31N 38°30' W 008°56'0 0.0
2014-Sep-24 08:31N 38°30' W 008°56'0 0.0
2014-Sep-24 07:31N 38°30' W 008°56'0 0.0
2014-Sep-24 06:31N 38°30' W 008°56'0 0.0
2014-Sep-24 05:31N 38°30' W 008°56'0 0.0
2014-Sep-24 04:31N 38°30' W 008°56'0 0.0
2014-Sep-24 03:25N 38°30' W 008°56'0 0.0
2014-Sep-24 02:31N 38°30' W 008°56'0 0.0
2014-Sep-24 01:25N 38°30' W 008°56'0 0.0
2014-Sep-24 00:31N 38°30' W 008°56'0 0.0
2014-Sep-23 23:28N 38°30' W 008°56'0 0.0
2014-Sep-23 22:31N 38°30' W 008°56'0 0.0
2014-Sep-23 21:31N 38°30' W 008°56'0 0.0
2014-Sep-23 20:31N 38°30' W 008°56'0 0.0
2014-Sep-23 19:31N 38°30' W 008°56'0 0.0
2014-Sep-23 18:31N 38°30' W 008°56'0 0.0
2014-Sep-23 17:28N 38°30' W 008°56'0 0.0
2014-Sep-23 16:28N 38°30' W 008°56'0 0.0
2014-Sep-23 15:22N 38°30' W 008°56'0 0.0
2014-Sep-23 14:31N 38°30' W 008°56'0 0.0
2014-Sep-23 13:31N 38°30' W 008°56'0 0.0
2014-Sep-23 12:31N 38°30' W 008°56'0 0.0
2014-Sep-23 11:31N 38°30' W 008°56'0 0.0
2014-Sep-23 10:31N 38°30' W 008°56'0 0.0
2014-Sep-23 09:31N 38°30' W 008°56'0 0.0
2014-Sep-23 08:31N 38°30' W 008°56'0 0.0
2014-Sep-23 07:31N 38°30' W 008°56'0 0.0
2014-Sep-23 06:31N 38°30' W 008°56'0 0.0
2014-Sep-23 05:31N 38°30' W 008°56'0 0.0
2014-Sep-23 04:31N 38°30' W 008°56'0 0.0
2014-Sep-23 03:31N 38°30' W 008°56'0 0.0
2014-Sep-23 02:31N 38°30' W 008°56'0 0.0
2014-Sep-23 01:31N 38°30' W 008°56'0 0.0
2014-Sep-23 00:31N 38°30' W 008°56'0 0.0
2014-Sep-22 23:31N 38°30' W 008°56'0 0.0
2014-Sep-22 22:31N 38°30' W 008°56'0 0.0
2014-Sep-22 21:28N 38°30' W 008°56'0 0.0
2014-Sep-22 20:31N 38°30' W 008°56'0 0.0
2014-Sep-22 19:31N 38°30' W 008°56'0 0.0
2014-Sep-22 18:25N 38°30' W 008°56'0 0.0
2014-Sep-22 17:31N 38°30' W 008°56'0 0.0
2014-Sep-22 16:31N 38°30' W 008°56'0 0.0
2014-Sep-22 15:28N 38°30' W 008°56'0 0.0
2014-Sep-22 14:31N 38°30' W 008°56'0 0.2
2014-Sep-22 13:33N 38°30' W 008°56'6 5.9
2014-Sep-22 12:33N 38°25' W 009°01'1 0.6
2014-Sep-22 11:33N 38°25' W 009°01'0 0.5
2014-Sep-22 10:33N 38°24' W 009°01'5 4.6
2014-Sep-22 09:33N 38°19' W 009°01'1010.3
2014-Sep-22 08:33N 38°09' W 009°03'1010.5
2014-Sep-22 07:33N 37°59' W 009°06'1010.3
2014-Sep-22 06:33N 37°49' W 009°09'1010.1
2014-Sep-22 05:33N 37°39' W 009°12'1110.2
2014-Sep-22 04:27N 37°28' W 009°15'57 8.0
2014-Sep-21 21:20N 36°38' W 008°44'155 9.8
2014-Sep-21 05:33N 35°58' W 005°37'7 7.3
2014-Sep-21 04:33N 35°60' W 005°29'8 8.0
2014-Sep-21 03:33N 36°02' W 005°19'194 9.2
2014-Sep-20 06:29N 36°31' W 001°20'1010.4
2014-Sep-20 05:30N 36°32' W 001°08'910.1
2014-Sep-20 04:34N 36°34' W 000°56'3210.0
2014-Sep-20 01:20N 36°38' W 000°16'810.1
2014-Sep-20 00:32N 36°39' W 000°06'10 9.8
2014-Sep-19 23:33N 36°40' E 000°06'1010.0
2014-Sep-19 22:33N 36°42' E 000°18'10 9.9
2014-Sep-19 21:32N 36°43' E 000°30'1410.0
2014-Sep-19 20:07N 36°45' E 000°48'610.2
2014-Sep-19 19:33N 36°45' E 000°55'1010.3
2014-Sep-19 18:33N 36°46' E 001°08'1010.2
2014-Sep-19 17:31N 36°46' E 001°21'  

Dump ship's entire track history